Time;durP1;ratioP1;P1;durP2;ratioP2;P2;SDS_P1;SDS_P2;PMS_P1;PMS_P2;Temp;Humidity;BMP_temperature;BMP_pressure;BME280_temperature;BME280_humidity;BME280_pressure;Samples;Min_cycle;Max_cycle;Signal;HPM_P1;HPM_P2
2022/09/22 00:01:38;;;;;;;3.03;1.60;;;;;;;;;;5039594;28;20035;-83
2022/09/22 00:04:07;;;;;;;2.60;1.50;;;;;;;;;;5039419;28;20037;-82
2022/09/22 00:06:38;;;;;;;3.70;1.52;;;;;;;;;;5021579;28;20033;-82
2022/09/22 00:09:06;;;;;;;2.10;1.33;;;;;;;;;;5037113;28;20490;-83
2022/09/22 00:11:35;;;;;;;2.42;1.35;;;;;;;;;;5036314;28;20041;-83
2022/09/22 00:14:05;;;;;;;2.00;1.17;;;;;;;;;;5038079;28;20402;-82
2022/09/22 00:16:51;;;;;;;3.55;1.50;;;;;;;;;;5039824;28;20041;-83
2022/09/22 00:19:28;;;;;;;3.70;1.38;;;;;;;;;;5039508;28;20482;-83
2022/09/22 00:21:54;;;;;;;1.88;1.40;;;;;;;;;;5039434;28;20041;-83
2022/09/22 00:24:24;;;;;;;2.90;1.48;;;;;;;;;;5038422;28;20056;-82
2022/09/22 00:26:56;;;;;;;3.80;1.52;;;;;;;;;;5037585;28;20041;-82
2022/09/22 00:29:22;;;;;;;2.92;1.38;;;;;;;;;;5037939;28;20075;-83
2022/09/22 00:31:49;;;;;;;2.25;1.30;;;;;;;;;;5037637;28;20033;-83
2022/09/22 00:34:18;;;;;;;1.90;1.20;;;;;;;;;;5038938;28;20045;-82
2022/09/22 00:36:45;;;;;;;2.40;1.30;;;;;;;;;;5038423;28;20029;-83
2022/09/22 00:39:11;;;;;;;7.72;1.42;;;;;;;;;;5021172;28;20091;-82
2022/09/22 00:41:41;;;;;;;2.65;1.50;;;;;;;;;;5038053;28;20043;-82
2022/09/22 00:44:25;;;;;;;2.25;1.50;;;;;;;;;;5038338;28;20037;-82
2022/09/22 00:47:12;;;;;;;2.28;1.30;;;;;;;;;;5021695;28;20045;-82
2022/09/22 00:50:02;;;;;;;1.83;1.40;;;;;;;;;;5020707;28;20107;-82
2022/09/22 00:52:34;;;;;;;2.75;1.40;;;;;;;;;;5038331;28;20095;-82
2022/09/22 00:55:03;;;;;;;5.20;1.30;;;;;;;;;;5037376;28;20044;-83
2022/09/22 00:57:32;;;;;;;2.00;1.40;;;;;;;;;;5020697;28;20037;-83
2022/09/22 00:59:59;;;;;;;2.55;1.35;;;;;;;;;;5020345;28;20514;-85
2022/09/22 01:02:25;;;;;;;3.70;1.70;;;;;;;;;;5035619;28;20029;-85
2022/09/22 01:04:51;;;;;;;2.97;1.60;;;;;;;;;;5034385;28;20485;-85
2022/09/22 01:07:22;;;;;;;3.17;1.90;;;;;;;;;;5036606;28;20038;-85
2022/09/22 01:09:48;;;;;;;3.17;1.45;;;;;;;;;;5037210;28;20405;-85
2022/09/22 01:12:14;;;;;;;2.03;1.35;;;;;;;;;;5033878;28;20537;-85
2022/09/22 01:14:51;;;;;;;3.97;1.52;;;;;;;;;;5036264;28;20068;-85
2022/09/22 01:18:06;;;;;;;1.73;1.20;;;;;;;;;;5037169;28;20120;-84
2022/09/22 01:21:13;;;;;;;2.65;1.20;;;;;;;;;;5035516;28;20053;-84
2022/09/22 01:23:41;;;;;;;1.50;1.00;;;;;;;;;;5014225;28;20042;-84
2022/09/22 01:26:31;;;;;;;1.63;1.10;;;;;;;;;;5031389;28;20165;-85
2022/09/22 01:29:20;;;;;;;1.30;1.00;;;;;;;;;;5036483;28;20075;-84
2022/09/22 01:31:57;;;;;;;1.80;1.05;;;;;;;;;;5035676;28;20041;-85
2022/09/22 01:34:33;;;;;;;3.17;1.00;;;;;;;;;;5036001;28;20406;-85
2022/09/22 01:37:08;;;;;;;2.38;0.95;;;;;;;;;;5035869;28;20128;-86
2022/09/22 01:39:37;;;;;;;1.50;1.10;;;;;;;;;;5036630;28;20036;-85
2022/09/22 01:42:17;;;;;;;1.70;1.10;;;;;;;;;;5036039;28;20474;-85
2022/09/22 01:44:54;;;;;;;1.73;1.20;;;;;;;;;;5035783;28;20529;-86
2022/09/22 01:47:31;;;;;;;2.38;1.75;;;;;;;;;;5036436;28;20040;-86
2022/09/22 01:50:01;;;;;;;2.17;1.30;;;;;;;;;;5036286;28;20029;-85
2022/09/22 01:52:30;;;;;;;1.70;1.33;;;;;;;;;;5036383;28;20025;-85
2022/09/22 01:55:04;;;;;;;1.63;1.13;;;;;;;;;;5033993;28;20037;-85
2022/09/22 01:57:59;;;;;;;1.92;1.30;;;;;;;;;;5035607;28;20091;-85
2022/09/22 02:00:25;;;;;;;2.75;1.30;;;;;;;;;;5033993;28;20048;-86
2022/09/22 02:02:51;;;;;;;3.13;1.40;;;;;;;;;;5036337;28;20037;-85
2022/09/22 02:05:41;;;;;;;1.88;1.15;;;;;;;;;;5037753;28;20037;-84
2022/09/22 02:08:12;;;;;;;4.18;1.48;;;;;;;;;;5039480;28;20069;-84
2022/09/22 02:10:43;;;;;;;1.88;1.38;;;;;;;;;;5038657;28;20037;-83
2022/09/22 02:13:08;;;;;;;2.00;1.40;;;;;;;;;;5039433;28;20052;-83
2022/09/22 02:18:23;;;;;;;2.10;1.40;;;;;;;;;;5039453;28;20025;-85
2022/09/22 02:20:49;;;;;;;1.80;1.30;;;;;;;;;;5039297;28;20391;-84
2022/09/22 02:23:15;;;;;;;1.92;1.40;;;;;;;;;;5038973;28;20044;-84
2022/09/22 02:25:43;;;;;;;1.80;1.30;;;;;;;;;;5057699;28;20091;-85
2022/09/22 02:28:12;;;;;;;1.70;1.25;;;;;;;;;;5058241;28;20040;-85
2022/09/22 02:30:38;;;;;;;1.67;1.25;;;;;;;;;;5058495;28;20033;-85
2022/09/22 02:33:05;;;;;;;2.95;1.30;;;;;;;;;;5058726;28;20045;-84
2022/09/22 02:35:36;;;;;;;1.85;1.33;;;;;;;;;;5057800;28;20064;-85
2022/09/22 02:38:13;;;;;;;1.40;1.20;;;;;;;;;;5058767;28;20041;-85
2022/09/22 02:40:47;;;;;;;1.90;1.27;;;;;;;;;;5058653;28;20033;-84
2022/09/22 02:43:40;;;;;;;1.30;1.10;;;;;;;;;;5058510;28;20037;-85
2022/09/22 02:46:21;;;;;;;4.97;1.33;;;;;;;;;;5057312;28;20029;-85
2022/09/22 02:48:50;;;;;;;2.28;1.33;;;;;;;;;;5057787;28;20042;-85
2022/09/22 02:51:17;;;;;;;2.05;1.20;;;;;;;;;;5057567;28;20063;-84
2022/09/22 02:53:43;;;;;;;1.70;1.30;;;;;;;;;;5057990;28;20037;-85
2022/09/22 02:56:09;;;;;;;1.77;1.20;;;;;;;;;;5056344;28;20040;-85
2022/09/22 02:58:34;;;;;;;1.52;1.10;;;;;;;;;;5058525;28;20032;-85
2022/09/22 03:01:00;;;;;;;3.83;1.23;;;;;;;;;;5058489;28;20039;-84
2022/09/22 03:03:25;;;;;;;2.00;1.30;;;;;;;;;;5056357;28;20045;-84
2022/09/22 03:05:51;;;;;;;1.42;1.17;;;;;;;;;;5057596;28;20033;-85
2022/09/22 03:08:16;;;;;;;1.58;1.20;;;;;;;;;;5058134;28;20493;-83
2022/09/22 03:10:42;;;;;;;2.17;1.20;;;;;;;;;;5056606;28;20090;-84
2022/09/22 03:13:07;;;;;;;1.90;1.27;;;;;;;;;;5058253;28;20515;-83
2022/09/22 03:15:33;;;;;;;1.70;1.30;;;;;;;;;;5055736;28;20025;-84
2022/09/22 03:17:58;;;;;;;1.40;1.10;;;;;;;;;;5056502;28;20033;-84
2022/09/22 03:20:24;;;;;;;4.35;1.45;;;;;;;;;;5057980;28;20115;-84
2022/09/22 03:22:49;;;;;;;3.70;1.30;;;;;;;;;;5058155;28;20036;-85
2022/09/22 03:25:15;;;;;;;1.95;1.50;;;;;;;;;;5055272;28;20093;-85
2022/09/22 03:27:40;;;;;;;3.08;1.60;;;;;;;;;;5057379;28;20401;-84
2022/09/22 03:30:07;;;;;;;1.88;1.02;;;;;;;;;;5039409;28;20090;-84
2022/09/22 03:32:33;;;;;;;4.00;1.30;;;;;;;;;;5057526;28;20038;-84
2022/09/22 03:34:58;;;;;;;1.20;1.10;;;;;;;;;;5056912;28;20041;-85
2022/09/22 03:37:24;;;;;;;2.75;1.20;;;;;;;;;;5057429;28;20029;-83
2022/09/22 03:39:49;;;;;;;1.10;1.00;;;;;;;;;;5057227;28;20048;-84
2022/09/22 03:42:15;;;;;;;2.90;1.50;;;;;;;;;;5056980;28;20087;-83
2022/09/22 03:44:40;;;;;;;3.15;1.30;;;;;;;;;;5056872;28;20075;-84
2022/09/22 03:47:06;;;;;;;2.15;1.20;;;;;;;;;;5057165;28;20056;-84
2022/09/22 03:49:31;;;;;;;1.60;1.20;;;;;;;;;;5057428;28;20378;-85
2022/09/22 03:51:57;;;;;;;2.33;1.50;;;;;;;;;;5056830;28;20061;-84
2022/09/22 03:54:22;;;;;;;1.20;1.08;;;;;;;;;;5055781;28;20103;-84
2022/09/22 03:56:48;;;;;;;2.25;1.20;;;;;;;;;;5055928;28;20521;-84
2022/09/22 03:59:13;;;;;;;1.10;1.00;;;;;;;;;;5056813;28;20512;-84
2022/09/22 04:01:39;;;;;;;1.13;0.95;;;;;;;;;;5055647;28;20041;-84
2022/09/22 04:04:05;;;;;;;1.63;1.10;;;;;;;;;;5054914;28;20060;-83
2022/09/22 04:06:32;;;;;;;1.83;1.20;;;;;;;;;;5055668;28;20501;-83
2022/09/22 04:08:57;;;;;;;1.88;1.20;;;;;;;;;;5055300;28;20037;-84
2022/09/22 04:11:23;;;;;;;1.70;1.30;;;;;;;;;;5054882;28;20039;-83
2022/09/22 04:13:49;;;;;;;4.95;1.20;;;;;;;;;;5056855;28;20033;-85
2022/09/22 04:16:15;;;;;;;1.17;0.90;;;;;;;;;;5054366;28;20041;-82
2022/09/22 04:18:41;;;;;;;1.80;1.10;;;;;;;;;;5054889;28;20183;-84
2022/09/22 04:21:07;;;;;;;1.50;1.10;;;;;;;;;;5055475;28;20075;-84
2022/09/22 04:23:33;;;;;;;3.08;1.30;;;;;;;;;;5056470;28;20036;-82
2022/09/22 04:26:00;;;;;;;3.45;1.30;;;;;;;;;;5053878;28;20058;-85
2022/09/22 04:28:25;;;;;;;3.50;1.98;;;;;;;;;;5056331;28;20041;-83
2022/09/22 04:30:51;;;;;;;4.75;1.80;;;;;;;;;;5056172;28;20044;-84
2022/09/22 04:33:16;;;;;;;3.45;1.50;;;;;;;;;;5056386;28;20025;-83
2022/09/22 04:35:42;;;;;;;2.85;1.30;;;;;;;;;;5054884;28;20425;-84
2022/09/22 04:38:09;;;;;;;3.42;1.40;;;;;;;;;;5056433;28;20036;-84
2022/09/22 04:40:35;;;;;;;4.50;1.45;;;;;;;;;;5054935;28;20083;-84
2022/09/22 04:43:00;;;;;;;3.17;1.40;;;;;;;;;;5056100;28;20037;-82
2022/09/22 04:45:26;;;;;;;3.35;1.50;;;;;;;;;;5055853;28;20497;-84
2022/09/22 04:47:52;;;;;;;8.95;5.20;;;;;;;;;;5055359;28;20044;-85
2022/09/22 04:50:20;;;;;;;3.47;2.35;;;;;;;;;;5056341;28;20032;-83
2022/09/22 04:52:49;;;;;;;3.00;1.60;;;;;;;;;;5056226;28;20513;-83
2022/09/22 04:55:15;;;;;;;2.13;1.50;;;;;;;;;;5055226;28;20087;-85
2022/09/22 04:57:51;;;;;;;2.42;1.42;;;;;;;;;;5056429;28;20025;-85
2022/09/22 05:00:18;;;;;;;2.08;1.30;;;;;;;;;;5055792;28;20064;-84
2022/09/22 05:02:44;;;;;;;1.40;1.10;;;;;;;;;;5054516;28;20021;-84
2022/09/22 05:05:10;;;;;;;2.47;1.42;;;;;;;;;;5054771;28;20029;-84
2022/09/22 05:07:40;;;;;;;2.65;1.60;;;;;;;;;;5055091;28;20055;-84
2022/09/22 05:10:06;;;;;;;5.47;2.53;;;;;;;;;;5056500;28;20041;-84
2022/09/22 05:12:36;;;;;;;8.10;3.17;;;;;;;;;;5054535;28;20028;-85
2022/09/22 05:15:01;;;;;;;13.68;6.07;;;;;;;;;;5055279;28;20083;-84
2022/09/22 05:17:27;;;;;;;11.50;6.88;;;;;;;;;;5056824;28;20482;-83
2022/09/22 05:19:54;;;;;;;7.88;4.63;;;;;;;;;;5054736;28;20037;-84
2022/09/22 05:22:21;;;;;;;7.05;3.80;;;;;;;;;;5055761;28;20031;-84
2022/09/22 05:24:47;;;;;;;3.25;2.00;;;;;;;;;;5054084;28;20032;-84
2022/09/22 05:27:13;;;;;;;3.50;1.50;;;;;;;;;;5056235;28;20061;-84
2022/09/22 05:29:39;;;;;;;2.00;1.30;;;;;;;;;;5055946;28;20478;-84
2022/09/22 05:32:05;;;;;;;2.10;1.38;;;;;;;;;;5054890;28;20028;-84
2022/09/22 05:34:30;;;;;;;3.65;1.70;;;;;;;;;;5055605;28;20052;-83
2022/09/22 05:36:56;;;;;;;2.30;1.50;;;;;;;;;;5056576;28;20032;-84
2022/09/22 05:39:21;;;;;;;1.75;1.27;;;;;;;;;;5058961;28;20037;-83
2022/09/22 05:41:48;;;;;;;2.45;1.33;;;;;;;;;;5058245;28;20040;-84
2022/09/22 05:44:14;;;;;;;3.58;1.70;;;;;;;;;;5058955;28;20048;-83
2022/09/22 05:46:40;;;;;;;3.30;1.80;;;;;;;;;;5060069;28;20091;-85
2022/09/22 05:49:05;;;;;;;5.65;2.80;;;;;;;;;;5040780;28;20409;-84
2022/09/22 05:51:31;;;;;;;4.20;2.60;;;;;;;;;;5052037;28;20052;-88
2022/09/22 05:53:56;;;;;;;4.75;2.25;;;;;;;;;;5058520;28;20092;-83
2022/09/22 05:56:22;;;;;;;5.05;2.78;;;;;;;;;;5060179;28;20037;-84
2022/09/22 05:58:47;;;;;;;5.60;2.88;;;;;;;;;;5059795;28;20029;-85
2022/09/22 06:01:13;;;;;;;7.80;2.97;;;;;;;;;;5058772;28;20040;-83
2022/09/22 06:03:39;;;;;;;3.35;1.90;;;;;;;;;;5059606;28;20099;-84
2022/09/22 06:06:05;;;;;;;3.83;2.30;;;;;;;;;;5058577;28;20049;-85
2022/09/22 06:08:30;;;;;;;7.28;4.00;;;;;;;;;;5058974;28;20397;-83
2022/09/22 06:10:55;;;;;;;5.57;2.80;;;;;;;;;;5058654;28;20040;-84
2022/09/22 06:13:21;;;;;;;4.50;2.60;;;;;;;;;;5057286;28;20055;-84
2022/09/22 06:15:47;;;;;;;5.32;2.70;;;;;;;;;;5059206;28;20029;-84
2022/09/22 06:18:16;;;;;;;3.42;2.58;;;;;;;;;;5059065;28;20362;-84
2022/09/22 06:20:41;;;;;;;4.13;2.78;;;;;;;;;;5059647;28;20043;-84
2022/09/22 06:23:07;;;;;;;3.55;1.70;;;;;;;;;;5058386;28;20112;-82
2022/09/22 06:25:33;;;;;;;2.17;1.73;;;;;;;;;;5057681;28;20059;-82
2022/09/22 06:28:04;;;;;;;2.25;1.40;;;;;;;;;;5058618;28;20432;-82
2022/09/22 06:30:31;;;;;;;2.55;1.50;;;;;;;;;;5058719;28;20029;-83
2022/09/22 06:32:56;;;;;;;2.22;1.50;;;;;;;;;;5059540;28;20029;-83
2022/09/22 06:35:23;;;;;;;2.33;1.50;;;;;;;;;;5055766;28;20049;-84
2022/09/22 06:37:57;;;;;;;2.55;1.40;;;;;;;;;;5055547;28;20040;-84
2022/09/22 06:40:23;;;;;;;2.10;1.30;;;;;;;;;;5057422;28;20493;-83
2022/09/22 06:42:54;;;;;;;5.35;1.55;;;;;;;;;;5058858;28;20041;-84
2022/09/22 06:45:20;;;;;;;1.80;1.40;;;;;;;;;;5039300;28;20512;-84
2022/09/22 06:47:45;;;;;;;4.13;1.42;;;;;;;;;;5058240;28;20025;-84
2022/09/22 06:50:11;;;;;;;2.65;1.50;;;;;;;;;;5056159;28;20172;-84
2022/09/22 06:52:36;;;;;;;2.67;1.40;;;;;;;;;;5057777;28;20029;-83
2022/09/22 06:55:02;;;;;;;1.73;1.42;;;;;;;;;;5057486;28;20033;-83
2022/09/22 06:57:29;;;;;;;1.90;1.20;;;;;;;;;;5058068;28;20440;-83
2022/09/22 06:59:55;;;;;;;2.45;1.50;;;;;;;;;;5041345;28;20034;-84
2022/09/22 07:02:27;;;;;;;2.05;1.20;;;;;;;;;;5038247;28;20083;-83
2022/09/22 07:04:58;;;;;;;2.22;1.30;;;;;;;;;;5036359;28;20457;-83
2022/09/22 07:07:30;;;;;;;2.20;1.23;;;;;;;;;;5037503;28;20044;-82
2022/09/22 07:09:56;;;;;;;2.00;1.13;;;;;;;;;;5019973;28;20094;-83
2022/09/22 07:12:24;;;;;;;1.73;1.20;;;;;;;;;;5036337;28;20037;-83
2022/09/22 07:14:51;;;;;;;2.30;1.35;;;;;;;;;;5037017;28;20109;-83
2022/09/22 07:17:17;;;;;;;1.40;1.30;;;;;;;;;;5037855;28;20030;-83
2022/09/22 07:19:45;;;;;;;1.83;1.20;;;;;;;;;;5019954;28;20072;-84
2022/09/22 07:22:15;;;;;;;2.38;1.40;;;;;;;;;;5038224;28;20044;-84
2022/09/22 07:24:43;;;;;;;3.28;1.38;;;;;;;;;;5037741;28;20031;-83
2022/09/22 07:27:13;;;;;;;1.65;1.30;;;;;;;;;;5036735;28;20033;-83
2022/09/22 07:29:39;;;;;;;3.42;1.15;;;;;;;;;;5038071;28;20124;-83
2022/09/22 07:32:05;;;;;;;1.65;1.20;;;;;;;;;;5054087;28;20087;-83
2022/09/22 07:34:31;;;;;;;2.00;1.20;;;;;;;;;;5056696;28;20041;-83
2022/09/22 07:36:58;;;;;;;1.95;1.25;;;;;;;;;;5056336;28;20036;-82
2022/09/22 07:39:24;;;;;;;1.63;1.13;;;;;;;;;;5055196;28;20033;-82
2022/09/22 07:41:50;;;;;;;2.33;1.20;;;;;;;;;;5056102;28;20107;-85
2022/09/22 07:46:59;;;;;;;;;;;;;;;;;;5058597;28;20474;-81
2022/09/22 07:49:25;;;;;;;1.90;1.30;;;;;;;;;;5057585;28;19923;-84
2022/09/22 07:51:53;;;;;;;2.20;1.30;;;;;;;;;;5057724;28;20028;-83
2022/09/22 07:54:21;;;;;;;2.42;1.20;;;;;;;;;;5055885;28;20033;-83
2022/09/22 07:56:46;;;;;;;1.92;1.23;;;;;;;;;;5058622;28;20044;-83
2022/09/22 07:59:15;;;;;;;2.85;1.10;;;;;;;;;;5057759;28;20044;-84
2022/09/22 08:01:46;;;;;;;1.80;1.20;;;;;;;;;;5057592;28;20037;-84
2022/09/22 08:04:17;;;;;;;1.65;1.10;;;;;;;;;;5056704;28;20323;-83
2022/09/22 08:06:44;;;;;;;2.22;1.45;;;;;;;;;;5056766;28;20115;-84
2022/09/22 08:09:11;;;;;;;1.98;0.95;;;;;;;;;;5055048;28;20049;-85
2022/09/22 08:11:37;;;;;;;1.85;1.05;;;;;;;;;;5053467;28;20033;-83
2022/09/22 08:14:06;;;;;;;1.10;0.98;;;;;;;;;;5046491;28;20609;-83
2022/09/22 08:16:38;;;;;;;7.15;1.10;;;;;;;;;;5034923;28;20103;-83
2022/09/22 08:19:11;;;;;;;3.95;1.05;;;;;;;;;;5036514;28;20029;-84
2022/09/22 08:21:38;;;;;;;3.00;1.27;;;;;;;;;;5036979;28;20047;-84
2022/09/22 08:24:06;;;;;;;2.17;1.10;;;;;;;;;;5035973;28;20041;-84
2022/09/22 08:26:32;;;;;;;3.95;1.20;;;;;;;;;;5036389;28;20108;-84
2022/09/22 08:28:58;;;;;;;3.38;1.10;;;;;;;;;;5036927;28;20064;-85
2022/09/22 08:31:25;;;;;;;2.20;1.27;;;;;;;;;;5035468;28;20057;-85
2022/09/22 08:33:52;;;;;;;3.25;1.20;;;;;;;;;;5036290;28;20068;-84
2022/09/22 08:36:19;;;;;;;2.15;1.10;;;;;;;;;;5035933;28;20512;-84
2022/09/22 08:38:47;;;;;;;1.80;1.10;;;;;;;;;;5037751;28;20028;-85
2022/09/22 08:41:28;;;;;;;1.27;1.17;;;;;;;;;;5056102;28;20037;-84
2022/09/22 08:44:00;;;;;;;1.15;1.05;;;;;;;;;;5055253;28;20041;-83
2022/09/22 08:46:35;;;;;;;1.90;1.23;;;;;;;;;;5041158;28;20041;-84
2022/09/22 08:51:59;;;;;;;3.17;1.20;;;;;;;;;;5036698;28;20386;-83
2022/09/22 08:54:30;;;;;;;2.67;1.20;;;;;;;;;;5036008;28;20106;-85
2022/09/22 08:57:10;;;;;;;1.52;1.20;;;;;;;;;;5036316;28;20041;-85
2022/09/22 08:59:47;;;;;;;1.42;1.08;;;;;;;;;;5037027;28;20513;-84
2022/09/22 09:02:22;;;;;;;2.15;1.20;;;;;;;;;;5036842;28;20064;-84
2022/09/22 09:05:03;;;;;;;1.42;1.10;;;;;;;;;;5035289;28;20033;-85
2022/09/22 09:07:57;;;;;;;2.15;1.13;;;;;;;;;;5038070;28;20030;-84
2022/09/22 09:10:41;;;;;;;;;;;;;;;;;;5016555;28;20042;-83
2022/09/22 09:13:40;;;;;;;1.33;1.17;;;;;;;;;;5038782;28;19912;-84
2022/09/22 09:16:24;;;;;;;1.40;1.10;;;;;;;;;;5040183;28;20025;-86
2022/09/22 09:18:59;;;;;;;1.10;0.90;;;;;;;;;;5040676;28;20053;-85
2022/09/22 09:21:27;;;;;;;2.00;1.20;;;;;;;;;;5041255;28;20462;-85
2022/09/22 09:23:58;;;;;;;2.40;1.30;;;;;;;;;;5041220;28;20029;-85
2022/09/22 09:26:26;;;;;;;1.30;1.05;;;;;;;;;;5040590;28;20045;-85
2022/09/22 09:28:59;;;;;;;2.03;1.10;;;;;;;;;;5040758;28;20494;-85
2022/09/22 09:31:33;;;;;;;2.03;1.20;;;;;;;;;;5040142;28;20412;-85
2022/09/22 09:34:10;;;;;;;2.03;1.10;;;;;;;;;;5039459;28;20038;-83
2022/09/22 09:36:40;;;;;;;3.20;1.20;;;;;;;;;;5041249;28;20041;-85
2022/09/22 09:39:13;;;;;;;4.07;1.30;;;;;;;;;;5041500;28;20029;-85
2022/09/22 09:41:42;;;;;;;1.90;1.23;;;;;;;;;;5040935;28;20471;-85
2022/09/22 09:44:16;;;;;;;1.50;1.20;;;;;;;;;;5040095;28;20104;-85
2022/09/22 09:47:01;;;;;;;1.70;1.10;;;;;;;;;;5040292;28;20482;-85
2022/09/22 09:49:27;;;;;;;2.63;1.38;;;;;;;;;;5041451;28;20112;-86
2022/09/22 09:51:59;;;;;;;2.10;1.20;;;;;;;;;;5041725;28;20056;-85
2022/09/22 09:54:26;;;;;;;2.15;1.10;;;;;;;;;;5039365;28;20076;-85
2022/09/22 09:57:08;;;;;;;2.35;1.40;;;;;;;;;;5039786;28;20040;-85
2022/09/22 10:02:26;;;;;;;1.75;1.10;;;;;;;;;;5058221;28;20087;-85
2022/09/22 10:05:14;;;;;;;2.30;1.20;;;;;;;;;;5047049;28;20057;-85
2022/09/22 10:07:45;;;;;;;2.20;1.10;;;;;;;;;;5038666;28;20124;-85
2022/09/22 10:10:32;;;;;;;2.22;1.45;;;;;;;;;;5041977;28;20041;-85
2022/09/22 10:13:04;;;;;;;2.28;1.30;;;;;;;;;;5022757;28;20665;-84
2022/09/22 10:15:35;;;;;;;1.88;1.10;;;;;;;;;;5039826;28;20044;-85
2022/09/22 10:18:02;;;;;;;2.92;1.20;;;;;;;;;;5041704;28;20033;-85
2022/09/22 10:20:33;;;;;;;1.58;1.10;;;;;;;;;;5039441;28;20021;-85
2022/09/22 10:23:19;;;;;;;1.25;1.10;;;;;;;;;;5040811;28;20036;-84
2022/09/22 10:25:44;;;;;;;2.03;1.05;;;;;;;;;;5040097;28;20033;-85
2022/09/22 10:28:15;;;;;;;2.05;1.10;;;;;;;;;;5041715;28;20082;-85
2022/09/22 10:30:42;;;;;;;2.45;1.00;;;;;;;;;;5042080;28;20029;-84
2022/09/22 10:33:13;;;;;;;3.92;1.10;;;;;;;;;;5041102;28;20037;-85
2022/09/22 10:35:42;;;;;;;1.88;1.10;;;;;;;;;;5042072;28;20033;-85
2022/09/22 10:38:10;;;;;;;1.60;1.10;;;;;;;;;;5049285;28;20029;-82
2022/09/22 10:40:39;;;;;;;1.42;0.90;;;;;;;;;;5048349;28;20045;-83
2022/09/22 10:43:16;;;;;;;2.60;1.05;;;;;;;;;;5049607;28;20048;-84
2022/09/22 10:45:57;;;;;;;2.53;1.17;;;;;;;;;;5050757;28;20033;-84
2022/09/22 10:48:44;;;;;;;1.95;1.00;;;;;;;;;;5049544;28;20064;-84
2022/09/22 10:51:16;;;;;;;1.58;1.00;;;;;;;;;;5050111;28;20041;-84
2022/09/22 10:54:14;;;;;;;1.67;0.90;;;;;;;;;;5049533;28;20037;-84
2022/09/22 10:56:48;;;;;;;2.28;1.00;;;;;;;;;;5049517;28;20053;-84
2022/09/22 10:59:59;;;;;;;1.23;0.95;;;;;;;;;;5048255;28;20049;-84
2022/09/22 11:02:51;;;;;;;0.80;0.60;;;;;;;;;;5047899;28;20048;-84
2022/09/22 11:12:15;;;;;;;2.35;1.00;;;;;;;;;;5048004;28;20036;-84
2022/09/22 11:14:10;;;;;;;3.78;2.10;;;;;;;;;;5049686;28;20125;-84
2022/09/22 11:17:14;;;;;;;3.33;1.17;;;;;;;;;;5048932;28;20037;-84
2022/09/22 11:19:57;;;;;;;1.40;0.80;;;;;;;;;;5051438;28;20046;-84
2022/09/22 11:22:41;;;;;;;2.15;1.00;;;;;;;;;;5056280;28;20036;-84
2022/09/22 11:25:20;;;;;;;1.50;1.00;;;;;;;;;;5056340;28;20033;-84
2022/09/22 11:28:09;;;;;;;1.95;1.10;;;;;;;;;;5056013;28;20497;-84
2022/09/22 11:30:51;;;;;;;1.23;1.00;;;;;;;;;;5058140;28;20098;-85
2022/09/22 11:33:53;;;;;;;2.15;1.30;;;;;;;;;;5057914;28;20029;-85
2022/09/22 11:36:34;;;;;;;1.50;0.80;;;;;;;;;;5056160;28;20037;-83
2022/09/22 11:39:17;;;;;;;1.92;1.00;;;;;;;;;;5057731;28;20493;-84
2022/09/22 11:41:55;;;;;;;1.95;1.08;;;;;;;;;;5057803;28;20037;-84
2022/09/22 11:44:52;;;;;;;1.88;1.20;;;;;;;;;;5051174;28;20029;-84
2022/09/22 11:47:33;;;;;;;2.05;1.00;;;;;;;;;;5020109;28;20041;-84
2022/09/22 11:50:24;;;;;;;1.20;1.00;;;;;;;;;;5035679;28;20395;-84
2022/09/22 11:52:52;;;;;;;1.95;1.10;;;;;;;;;;5035855;28;20040;-85
2022/09/22 11:55:40;;;;;;;1.27;0.85;;;;;;;;;;5053733;28;20112;-85
2022/09/22 11:58:14;;;;;;;4.10;1.20;;;;;;;;;;5056106;28;20037;-85
2022/09/22 12:00:56;;;;;;;1.33;1.10;;;;;;;;;;5054669;28;20037;-85
2022/09/22 12:03:27;;;;;;;2.05;1.33;;;;;;;;;;5056068;28;20092;-85
2022/09/22 12:06:04;;;;;;;1.45;1.00;;;;;;;;;;5053639;28;20047;-84
2022/09/22 12:08:55;;;;;;;1.00;0.82;;;;;;;;;;5056083;28;20037;-86
2022/09/22 12:11:24;;;;;;;1.10;0.95;;;;;;;;;;5044524;28;20045;-85
2022/09/22 12:13:52;;;;;;;1.52;0.90;;;;;;;;;;5058189;28;20075;-86
2022/09/22 12:16:40;;;;;;;0.98;0.90;;;;;;;;;;5056546;28;20041;-87
2022/09/22 12:19:16;;;;;;;1.27;1.00;;;;;;;;;;5057083;28;20025;-86
2022/09/22 12:22:03;;;;;;;1.20;0.90;;;;;;;;;;5054799;28;20067;-86
2022/09/22 12:24:30;;;;;;;2.55;1.15;;;;;;;;;;5055570;28;20036;-85
2022/09/22 12:26:55;;;;;;;1.65;1.00;;;;;;;;;;5056081;28;20032;-85
2022/09/22 12:29:28;;;;;;;2.40;1.30;;;;;;;;;;5056427;28;20107;-86
2022/09/22 12:31:57;;;;;;;1.50;1.00;;;;;;;;;;5056829;28;20044;-86
2022/09/22 12:34:28;;;;;;;3.10;0.93;;;;;;;;;;5056137;28;20045;-86
2022/09/22 12:37:07;;;;;;;1.85;1.00;;;;;;;;;;5057454;28;20036;-87
2022/09/22 12:39:39;;;;;;;1.17;1.05;;;;;;;;;;5055054;28;20044;-85
2022/09/22 12:42:17;;;;;;;3.13;1.10;;;;;;;;;;5056866;28;20044;-86
2022/09/22 12:44:49;;;;;;;1.10;0.90;;;;;;;;;;5054967;28;20052;-86
2022/09/22 12:47:21;;;;;;;1.38;1.10;;;;;;;;;;5055394;28;20037;-86
2022/09/22 12:49:50;;;;;;;3.92;0.90;;;;;;;;;;5055805;28;20037;-85
2022/09/22 12:52:40;;;;;;;1.60;1.00;;;;;;;;;;5054874;28;20041;-87
2022/09/22 12:55:36;;;;;;;1.77;1.10;;;;;;;;;;5056082;28;20128;-86
2022/09/22 12:58:03;;;;;;;1.52;1.20;;;;;;;;;;5055089;28;20047;-87
2022/09/22 13:00:39;;;;;;;1.67;1.10;;;;;;;;;;5057879;28;20041;-87
2022/09/22 13:03:23;;;;;;;1.83;1.08;;;;;;;;;;5039653;28;20045;-86
2022/09/22 13:06:02;;;;;;;1.42;1.00;;;;;;;;;;5057594;28;20040;-88
2022/09/22 13:08:30;;;;;;;2.80;1.35;;;;;;;;;;5057476;28;20045;-87
2022/09/22 13:11:04;;;;;;;2.28;1.10;;;;;;;;;;5057377;28;20037;-87
2022/09/22 13:13:29;;;;;;;1.73;1.05;;;;;;;;;;5057664;28;20128;-87
2022/09/22 13:16:15;;;;;;;1.20;0.98;;;;;;;;;;5055876;28;20071;-87
2022/09/22 13:18:41;;;;;;;1.75;1.02;;;;;;;;;;5055153;28;20029;-87
2022/09/22 13:21:13;;;;;;;1.58;1.10;;;;;;;;;;5056078;28;20071;-87
2022/09/22 13:23:50;;;;;;;1.25;1.00;;;;;;;;;;5058039;28;20429;-87
2022/09/22 13:26:25;;;;;;;1.45;1.00;;;;;;;;;;5057469;28;20052;-87
2022/09/22 13:29:04;;;;;;;1.80;1.00;;;;;;;;;;5057475;28;20037;-87
2022/09/22 13:31:43;;;;;;;1.52;1.10;;;;;;;;;;5056369;28;20041;-87
2022/09/22 13:34:19;;;;;;;2.30;1.23;;;;;;;;;;5058193;28;20047;-87
2022/09/22 13:36:46;;;;;;;1.77;1.20;;;;;;;;;;5057632;28;20091;-87
2022/09/22 13:39:20;;;;;;;1.90;1.30;;;;;;;;;;5058585;28;20430;-88
2022/09/22 13:41:50;;;;;;;2.58;1.20;;;;;;;;;;5057845;28;20548;-87
2022/09/22 13:44:25;;;;;;;1.70;1.00;;;;;;;;;;5057092;28;20032;-87
2022/09/22 13:46:51;;;;;;;1.70;1.00;;;;;;;;;;5057701;28;20079;-87
2022/09/22 13:49:50;;;;;;;1.50;1.10;;;;;;;;;;5057722;28;20033;-87
2022/09/22 13:52:22;;;;;;;1.40;1.10;;;;;;;;;;5055774;28;20053;-87
2022/09/22 13:54:53;;;;;;;1.40;1.10;;;;;;;;;;5056779;28;20044;-87
2022/09/22 13:57:22;;;;;;;3.08;1.20;;;;;;;;;;5058716;28;20378;-87
2022/09/22 13:59:51;;;;;;;1.85;1.05;;;;;;;;;;5062864;28;20009;-86
2022/09/22 14:02:21;;;;;;;1.67;1.13;;;;;;;;;;5061018;28;20119;-88
2022/09/22 14:04:49;;;;;;;1.52;1.20;;;;;;;;;;5059701;28;20572;-86
2022/09/22 14:07:16;;;;;;;1.25;1.00;;;;;;;;;;5060591;28;20037;-87
2022/09/22 14:09:43;;;;;;;2.00;1.40;;;;;;;;;;5060308;28;20068;-87
2022/09/22 14:12:09;;;;;;;1.55;1.30;;;;;;;;;;5060912;28;20046;-87
2022/09/22 14:14:35;;;;;;;2.00;1.30;;;;;;;;;;5057111;28;20060;-87
2022/09/22 14:17:04;;;;;;;1.70;1.30;;;;;;;;;;5058760;28;20048;-87
2022/09/22 14:19:38;;;;;;;2.22;1.05;;;;;;;;;;5058387;28;20033;-87
2022/09/22 14:22:12;;;;;;;1.63;1.10;;;;;;;;;;5059133;28;20098;-87
2022/09/22 14:24:47;;;;;;;3.13;1.27;;;;;;;;;;5057754;28;20062;-87
2022/09/22 14:27:20;;;;;;;1.20;1.10;;;;;;;;;;5059111;28;20029;-86
2022/09/22 14:29:48;;;;;;;1.50;1.20;;;;;;;;;;5059338;28;20128;-87
2022/09/22 14:32:20;;;;;;;1.65;1.10;;;;;;;;;;5058985;28;20041;-87
2022/09/22 14:34:49;;;;;;;2.20;1.40;;;;;;;;;;5058258;28;20033;-87
2022/09/22 14:37:20;;;;;;;2.22;1.40;;;;;;;;;;5058618;28;20035;-87
2022/09/22 14:39:47;;;;;;;1.77;1.10;;;;;;;;;;5042770;28;20060;-87
2022/09/22 14:42:20;;;;;;;2.70;1.60;;;;;;;;;;5058615;28;20023;-87
2022/09/22 14:44:50;;;;;;;2.03;1.33;;;;;;;;;;5058207;28;20123;-86
2022/09/22 14:47:26;;;;;;;3.05;1.48;;;;;;;;;;5059688;28;20051;-87
2022/09/22 14:50:20;;;;;;;3.78;1.60;;;;;;;;;;5059630;28;20037;-86
2022/09/22 14:52:45;;;;;;;;;;;;;;;;;;5060280;28;20551;-86
2022/09/22 14:55:22;;;;;;;5.85;2.95;;;;;;;;;;5060380;28;20011;-86
2022/09/22 14:57:48;;;;;;;5.97;3.05;;;;;;;;;;5060312;28;20052;-86
2022/09/22 15:03:02;;;;;;;3.83;1.50;;;;;;;;;;5059908;28;20032;-85
2022/09/22 15:05:31;;;;;;;2.30;1.50;;;;;;;;;;5059637;28;20116;-86
2022/09/22 15:07:57;;;;;;;2.30;1.30;;;;;;;;;;5057176;28;20052;-86
2022/09/22 15:10:32;;;;;;;2.03;1.23;;;;;;;;;;5040823;28;20041;-86
2022/09/22 15:13:18;;;;;;;1.88;1.35;;;;;;;;;;5057730;28;20043;-86
2022/09/22 15:15:46;;;;;;;1.65;1.45;;;;;;;;;;5058980;28;20033;-86
2022/09/22 15:18:12;;;;;;;1.77;1.27;;;;;;;;;;5057212;28;20038;-85
2022/09/22 15:20:43;;;;;;;1.88;1.38;;;;;;;;;;5058214;28;20033;-86
2022/09/22 15:23:40;;;;;;;2.63;1.50;;;;;;;;;;5058546;28;20410;-86
2022/09/22 15:26:16;;;;;;;3.67;1.58;;;;;;;;;;5056617;28;20067;-86
2022/09/22 15:28:42;;;;;;;2.47;1.63;;;;;;;;;;5057463;28;20036;-86
2022/09/22 15:31:10;;;;;;;5.28;1.60;;;;;;;;;;5058742;28;20481;-87